Time;durP1;ratioP1;P1;durP2;ratioP2;P2;SDS_P1;SDS_P2;PMS_P1;PMS_P2;Temp;Humidity;BMP_temperature;BMP_pressure;BME280_temperature;BME280_humidity;BME280_pressure;Samples;Min_cycle;Max_cycle;Signal;HPM_P1;HPM_P2
2022/12/24 00:02:05;;;;;;;;;;;;;;;14.34;91.38;99676.25;5076203;28;19978;-63
2022/12/24 00:04:31;;;;;;;;;;;;;;;14.41;90.04;99674.94;5091829;28;20038;-63
2022/12/24 00:06:56;;;;;;;;;;;;;;;14.49;90.56;99671.88;5094033;28;20014;-63
2022/12/24 00:09:21;;;;;;;;;;;;;;;14.53;90.13;99676.09;5085634;28;19936;-64
2022/12/24 00:11:47;;;;;;;;;;;;;;;14.42;89.84;99668.66;5073927;28;20340;-64
2022/12/24 00:14:12;;;;;;;;;;;;;;;14.45;90.15;99672.97;5073467;28;19937;-64
2022/12/24 00:16:37;;;;;;;;;;;;;;;14.51;89.35;99670.00;5076105;28;19932;-64
2022/12/24 00:19:02;;;;;;;;;;;;;;;14.58;89.48;99670.53;5073445;28;19974;-64
2022/12/24 00:21:28;;;;;;;;;;;;;;;14.60;88.16;99676.63;5073694;28;20284;-64
2022/12/24 00:23:53;;;;;;;;;;;;;;;14.59;88.50;99674.91;5075953;28;20094;-63
2022/12/24 00:26:18;;;;;;;;;;;;;;;14.60;89.14;99679.31;5090355;28;20064;-61
2022/12/24 00:28:44;;;;;;;;;;;;;;;14.59;90.06;99680.28;5093524;28;19959;-61
2022/12/24 00:31:11;;;;;;;;;;;;;;;14.55;90.24;99676.88;5093610;28;19959;-61
2022/12/24 00:33:36;;;;;;;;;;;;;;;14.51;90.34;99675.34;5088554;28;19955;-61
2022/12/24 00:36:01;;;;;;;;;;;;;;;14.55;89.51;99682.25;5073196;28;19941;-61
2022/12/24 00:38:27;;;;;;;;;;;;;;;14.58;89.35;99676.72;5073665;28;19939;-61
2022/12/24 00:40:57;;;;;;;;;;;;;;;14.61;88.10;99686.41;5074653;28;19929;-61
2022/12/24 00:43:22;;;;;;;;;;;;;;;14.60;88.84;99690.00;5072072;28;20402;-61
2022/12/24 00:45:47;;;;;;;;;;;;;;;14.56;89.17;99704.53;5073019;28;20029;-61
2022/12/24 00:48:12;;;;;;;;;;;;;;;14.52;89.10;99707.38;5075011;28;20319;-62
2022/12/24 00:50:38;;;;;;;;;;;;;;;14.43;90.01;99713.19;5090540;28;19948;-62
2022/12/24 00:53:03;;;;;;;;;;;;;;;14.34;90.57;99713.72;5092931;28;19929;-62
2022/12/24 00:55:28;;;;;;;;;;;;;;;14.44;90.12;99711.41;5093401;28;20409;-62
2022/12/24 00:57:53;;;;;;;;;;;;;;;14.45;89.72;99715.78;5080195;28;19935;-62
2022/12/24 01:00:19;;;;;;;;;;;;;;;14.53;89.25;99717.13;5093078;28;19937;-62
2022/12/24 01:02:44;;;;;;;;;;;;;;;14.51;89.02;99723.53;5092833;28;19969;-62
2022/12/24 01:05:10;;;;;;;;;;;;;;;14.47;88.60;99732.66;5113277;28;19952;-62
2022/12/24 01:07:45;;;;;;;;;;;;;;;14.51;89.14;99750.28;5085549;28;19936;-62
2022/12/24 01:10:11;;;;;;;;;;;;;;;14.44;89.35;99743.50;5090916;28;20426;-62
2022/12/24 01:12:37;;;;;;;;;;;;;;;14.50;88.41;99754.75;5093033;28;19964;-62
2022/12/24 01:15:03;;;;;;;;;;;;;;;14.52;88.90;99776.09;5092608;28;19979;-62
2022/12/24 01:17:29;;;;;;;;;;;;;;;14.44;89.80;99771.16;5088238;28;19942;-62
2022/12/24 01:19:55;;;;;;;;;;;;;;;14.45;90.33;99766.63;5074938;28;19935;-62
2022/12/24 01:22:20;;;;;;;;;;;;;;;14.39;89.67;99769.66;5076099;28;20417;-62
2022/12/24 01:24:45;;;;;;;;;;;;;;;14.40;91.03;99766.88;5092134;28;20418;-62
2022/12/24 01:27:11;;;;;;;;;;;;;;;14.40;90.97;99768.69;5086902;28;19974;-62
2022/12/24 01:29:36;;;;;;;;;;;;;;;14.38;91.02;99781.31;5071971;28;20020;-62
2022/12/24 01:32:01;;;;;;;;;;;;;;;14.42;91.25;99790.88;5072180;28;19926;-62
2022/12/24 01:34:26;;;;;;;;;;;;;;;14.40;90.16;99790.97;5088732;28;19932;-62
2022/12/24 01:36:52;;;;;;;;;;;;;;;14.33;90.99;99802.09;5079981;28;19934;-62
2022/12/24 01:39:17;;;;;;;;;;;;;;;14.30;90.14;99804.88;5071917;28;20277;-62
2022/12/24 01:44:26;;;;;;;;;;;;;;;14.36;89.38;99809.94;5091242;28;19951;-62
2022/12/24 01:47:10;;;;;;;;;;;;;;;14.37;89.85;99811.66;5074963;28;19941;-62
2022/12/24 01:49:36;;;;;;;;;;;;;;;14.35;88.95;99813.53;5071687;28;20414;-62
2022/12/24 01:52:03;;;;;;;;;;;;;;;14.29;88.45;99817.44;5071674;28;20016;-62
2022/12/24 01:54:32;;;;;;;;;;;;;;;14.33;88.95;99821.66;5073869;28;19940;-62
2022/12/24 01:57:02;;;;;;;;;;;;;;;14.32;89.25;99813.72;5071970;28;20577;-62
2022/12/24 01:59:28;;;;;;;;;;;;;;;14.22;89.03;99812.41;5071810;28;19938;-62
2022/12/24 02:01:53;;;;;;;;;;;;;;;14.28;88.22;99814.84;5073663;28;20296;-61
2022/12/24 02:04:18;;;;;;;;;;;;;;;14.30;87.20;99820.94;5100322;28;19951;-61
2022/12/24 02:06:44;;;;;;;;;;;;;;;14.32;88.10;99824.41;5088583;28;20383;-61
2022/12/24 02:09:09;;;;;;;;;;;;;;;14.34;88.58;99817.19;5071603;28;20391;-61
2022/12/24 02:11:38;;;;;;;;;;;;;;;14.30;88.84;99820.94;5073538;28;19945;-61
2022/12/24 02:14:03;;;;;;;;;;;;;;;14.31;88.54;99822.69;5071639;28;19930;-60
2022/12/24 02:16:31;;;;;;;;;;;;;;;14.29;87.84;99825.44;5071694;28;19940;-60
2022/12/24 02:19:14;;;;;;;;;;;;;;;14.35;87.57;99824.25;5079965;28;20368;-61
2022/12/24 02:21:45;;;;;;;;;;;;;;;14.34;87.85;99819.84;5071488;28;19983;-61
2022/12/24 02:24:29;;;;;;;;;;;;;;;14.35;88.44;99824.25;5071407;28;19936;-61
2022/12/24 02:27:05;;;;;;;;;;;;;;;14.32;89.13;99827.09;5070716;28;19951;-60
2022/12/24 02:29:48;;;;;;;;;;;;;;;14.31;90.00;99830.72;5073928;28;19937;-61
2022/12/24 02:32:19;;;;;;;;;;;;;;;14.29;89.66;99837.94;5073042;28;19932;-62
2022/12/24 02:35:05;;;;;;;;;;;;;;;14.24;91.11;99827.47;5084084;28;19980;-62
2022/12/24 02:37:34;;;;;;;;;;;;;;;14.21;91.16;99819.59;5072266;28;19942;-61
2022/12/24 02:40:07;;;;;;;;;;;;;;;14.20;90.15;99803.63;5070187;28;19928;-61
2022/12/24 02:42:41;;;;;;;;;;;;;;;14.21;91.07;99816.03;5073512;28;20682;-61
2022/12/24 02:45:26;;;;;;;;;;;;;;;14.22;91.39;99828.47;5071489;28;20047;-62
2022/12/24 02:47:53;;;;;;;;;;;;;;;14.14;91.24;99809.25;5071007;28;19966;-62
2022/12/24 02:50:18;;;;;;;;;;;;;;;14.13;91.59;99826.25;5071207;28;19951;-61
2022/12/24 02:52:45;;;;;;;;;;;;;;;14.13;92.48;99820.91;5083541;28;20292;-61
2022/12/24 02:55:28;;;;;;;;;;;;;;;14.09;91.91;99819.31;5073311;28;19977;-60
2022/12/24 02:58:03;;;;;;;;;;;;;;;14.07;92.45;99832.78;5071321;28;19931;-61
2022/12/24 03:00:34;;;;;;;;;;;;;;;14.04;93.33;99821.34;5072111;28;19944;-61
2022/12/24 03:03:11;;;;;;;;;;;;;;;14.02;92.98;99825.94;5075637;28;19936;-61
2022/12/24 03:05:59;;;;;;;;;;;;;;;14.00;92.93;99835.84;5111502;28;20396;-61
2022/12/24 03:08:34;;;;;;;;;;;;;;;13.97;92.32;99849.38;5090257;28;19946;-60
2022/12/24 03:11:04;;;;;;;;;;;;;;;13.96;92.07;99847.63;5091031;28;19986;-61
2022/12/24 03:13:29;;;;;;;;;;;;;;;13.99;92.45;99847.47;5095363;28;19935;-61
2022/12/24 03:15:55;;;;;;;;;;;;;;;14.01;92.97;99845.59;5094715;28;19925;-61
2022/12/24 03:18:23;;;;;;;;;;;;;;;13.97;92.91;99844.03;5079352;28;19977;-61
2022/12/24 03:20:57;;;;;;;;;;;;;;;13.91;92.40;99841.63;5076005;28;19927;-61
2022/12/24 03:23:23;;;;;;;;;;;;;;;13.89;92.10;99843.50;5095012;28;20311;-61
2022/12/24 03:25:48;;;;;;;;;;;;;;;13.85;92.61;99848.16;5092700;28;19933;-61
2022/12/24 03:28:15;;;;;;;;;;;;;;;13.87;93.20;99861.44;5093334;28;20029;-62
2022/12/24 03:30:41;;;;;;;;;;;;;;;13.83;93.75;99865.19;5089202;28;19948;-62
2022/12/24 03:33:07;;;;;;;;;;;;;;;13.78;93.38;99869.91;5087019;28;19945;-61
2022/12/24 03:35:32;;;;;;;;;;;;;;;13.85;92.09;99876.69;5092764;28;19944;-61
2022/12/24 03:37:58;;;;;;;;;;;;;;;13.94;89.98;99881.56;5075866;28;20031;-62
2022/12/24 03:40:23;;;;;;;;;;;;;;;14.02;89.08;99874.91;5089927;28;19936;-62
2022/12/24 03:42:48;;;;;;;;;;;;;;;14.05;87.73;99881.94;5083293;28;20024;-61
2022/12/24 03:45:13;;;;;;;;;;;;;;;14.12;87.50;99883.34;5077383;28;20440;-61
2022/12/24 03:47:39;;;;;;;;;;;;;;;14.12;87.55;99886.91;5092394;28;19959;-61
2022/12/24 03:50:05;;;;;;;;;;;;;;;14.10;87.79;99886.09;5074089;28;19990;-61
2022/12/24 03:52:30;;;;;;;;;;;;;;;14.07;88.19;99890.72;5074177;28;19938;-62
2022/12/24 03:54:55;;;;;;;;;;;;;;;14.07;88.17;99875.56;5076302;28;20504;-61
2022/12/24 03:57:20;;;;;;;;;;;;;;;13.97;88.45;99886.81;5072896;28;19960;-61
2022/12/24 03:59:46;;;;;;;;;;;;;;;14.05;88.04;99898.00;5076308;28;20034;-61
2022/12/24 04:02:11;;;;;;;;;;;;;;;14.09;87.56;99892.41;5074017;28;20718;-61
2022/12/24 04:04:36;;;;;;;;;;;;;;;14.08;87.41;99900.50;5107983;28;19987;-61
2022/12/24 04:07:02;;;;;;;;;;;;;;;14.08;87.65;99906.75;5084827;28;19938;-61
2022/12/24 04:09:27;;;;;;;;;;;;;;;14.03;87.77;99898.06;5073951;28;20466;-60
2022/12/24 04:11:52;;;;;;;;;;;;;;;14.06;88.02;99902.38;5076293;28;19939;-61
2022/12/24 04:14:18;;;;;;;;;;;;;;;14.08;86.79;99904.06;5073856;28;20448;-61
2022/12/24 04:16:43;;;;;;;;;;;;;;;14.13;86.35;99903.84;5073634;28;19926;-61
2022/12/24 04:19:08;;;;;;;;;;;;;;;14.09;86.09;99896.88;5086544;28;20283;-61
2022/12/24 04:21:33;;;;;;;;;;;;;;;14.07;86.17;99909.47;5093837;28;19977;-60
2022/12/24 04:23:59;;;;;;;;;;;;;;;14.05;85.31;99903.34;5087748;28;19930;-61
2022/12/24 04:26:24;;;;;;;;;;;;;;;14.06;85.44;99913.09;5093386;28;19981;-61
2022/12/24 04:28:49;;;;;;;;;;;;;;;14.06;83.88;99911.28;5093569;28;20330;-61
2022/12/24 04:31:15;;;;;;;;;;;;;;;14.10;84.25;99920.03;5078050;28;19954;-61
2022/12/24 04:33:41;;;;;;;;;;;;;;;14.12;84.10;99918.13;5086704;28;19935;-62
2022/12/24 04:36:06;;;;;;;;;;;;;;;14.10;83.91;99920.03;5087599;28;20288;-61
2022/12/24 04:38:33;;;;;;;;;;;;;;;14.08;83.62;99906.75;5073361;28;19931;-61
2022/12/24 04:40:59;;;;;;;;;;;;;;;14.11;83.13;99916.41;5073318;28;19980;-61
2022/12/24 04:43:25;;;;;;;;;;;;;;;14.15;83.88;99926.88;5088427;28;20035;-61
2022/12/24 04:45:51;;;;;;;;;;;;;;;14.13;83.74;99935.94;5093338;28;20384;-62
2022/12/24 04:48:16;;;;;;;;;;;;;;;14.13;83.85;99939.47;5085921;28;19966;-62
2022/12/24 04:50:41;;;;;;;;;;;;;;;14.11;84.18;99935.13;5073266;28;19980;-61
2022/12/24 04:53:06;;;;;;;;;;;;;;;14.12;83.96;99942.19;5073197;28;19929;-61
2022/12/24 04:55:31;;;;;;;;;;;;;;;14.13;83.94;99935.94;5072944;28;20292;-62
2022/12/24 04:57:57;;;;;;;;;;;;;;;14.14;84.11;99940.31;5084103;28;19941;-61
2022/12/24 05:00:22;;;;;;;;;;;;;;;14.08;83.80;99933.50;5093137;28;19926;-62
2022/12/24 05:02:47;;;;;;;;;;;;;;;14.07;82.98;99933.53;5093803;28;20453;-62
2022/12/24 05:05:13;;;;;;;;;;;;;;;14.07;83.94;99944.22;5113282;28;20316;-61
2022/12/24 05:07:38;;;;;;;;;;;;;;;14.04;84.46;99949.72;5091941;28;19941;-62
2022/12/24 05:10:03;;;;;;;;;;;;;;;14.06;84.32;99939.84;5093024;28;20286;-61
2022/12/24 05:12:29;;;;;;;;;;;;;;;14.04;84.85;99947.94;5083410;28;19969;-62
2022/12/24 05:14:54;;;;;;;;;;;;;;;14.02;84.95;99948.97;5072427;28;19957;-62
2022/12/24 05:17:19;;;;;;;;;;;;;;;13.99;85.98;99946.41;5072883;28;20431;-61
2022/12/24 05:19:44;;;;;;;;;;;;;;;13.95;86.85;99944.84;5077515;28;19935;-61
2022/12/24 05:27:38;;;;;;;;;;;;;;;13.83;88.03;99930.25;5092581;28;19928;-61
2022/12/24 05:30:03;;;;;;;;;;;;;;;13.85;88.53;99938.19;5091869;28;20325;-62
2022/12/24 05:32:28;;;;;;;;;;;;;;;13.80;89.20;99937.53;5090759;28;19935;-62
2022/12/24 05:34:54;;;;;;;;;;;;;;;13.76;88.12;99942.16;5074839;28;20019;-62
2022/12/24 05:37:19;;;;;;;;;;;;;;;13.78;88.94;99952.75;5072013;28;19927;-61
2022/12/24 05:39:44;;;;;;;;;;;;;;;13.79;89.16;99949.19;5074439;28;19936;-61
2022/12/24 05:42:09;;;;;;;;;;;;;;;13.78;90.17;99950.09;5072219;28;19937;-62
2022/12/24 05:44:35;;;;;;;;;;;;;;;13.71;91.06;99959.31;5073890;28;19929;-62
2022/12/24 05:47:00;;;;;;;;;;;;;;;13.67;92.80;99955.06;5072302;28;19946;-61
2022/12/24 05:49:25;;;;;;;;;;;;;;;13.64;93.39;99952.56;5072121;28;19925;-61
2022/12/24 05:51:50;;;;;;;;;;;;;;;13.58;94.61;99952.81;5074378;28;20278;-61
2022/12/24 05:54:16;;;;;;;;;;;;;;;13.55;95.86;99950.28;5071770;28;20014;-62
2022/12/24 05:56:41;;;;;;;;;;;;;;;13.49;96.78;99947.91;5071988;28;20377;-62
2022/12/24 05:59:06;;;;;;;;;;;;;;;13.39;97.92;99951.94;5071870;28;20388;-62
2022/12/24 06:01:31;;;;;;;;;;;;;;;13.36;98.15;99946.72;5085935;28;19978;-62
2022/12/24 06:03:57;;;;;;;;;;;;;;;13.32;99.10;99945.13;5102094;28;19944;-62
2022/12/24 06:06:23;;;;;;;;;;;;;;;13.29;98.57;99939.91;5095006;28;20385;-62
2022/12/24 06:08:49;;;;;;;;;;;;;;;13.28;97.88;99946.22;5071691;28;19932;-61
2022/12/24 06:11:15;;;;;;;;;;;;;;;13.26;97.13;99946.28;5071466;28;19952;-61
2022/12/24 06:13:41;;;;;;;;;;;;;;;13.28;95.19;99954.22;5088782;28;19945;-61
2022/12/24 06:16:08;;;;;;;;;;;;;;;13.29;94.21;99955.94;5088384;28;19936;-62
2022/12/24 06:18:34;;;;;;;;;;;;;;;13.35;93.96;99953.88;5088102;28;19957;-61
2022/12/24 06:20:59;;;;;;;;;;;;;;;13.45;94.12;99967.66;5091441;28;19929;-61
2022/12/24 06:23:25;;;;;;;;;;;;;;;13.41;93.49;99961.59;5088875;28;19930;-62
2022/12/24 06:25:50;;;;;;;;;;;;;;;13.37;93.69;99953.78;5089513;28;20448;-62
2022/12/24 06:28:15;;;;;;;;;;;;;;;13.32;93.26;99956.69;5091783;28;20019;-62
2022/12/24 06:30:45;;;;;;;;;;;;;;;13.29;92.76;99955.94;5091568;28;20426;-61
2022/12/24 06:33:10;;;;;;;;;;;;;;;13.30;91.62;99968.34;5087741;28;20007;-62
2022/12/24 06:35:35;;;;;;;;;;;;;;;13.31;91.39;99975.44;5090782;28;19934;-62
2022/12/24 06:38:00;;;;;;;;;;;;;;;13.34;91.04;99970.84;5089567;28;19938;-61
2022/12/24 06:40:26;;;;;;;;;;;;;;;13.36;91.64;99976.13;5072224;28;20418;-61
2022/12/24 06:42:51;;;;;;;;;;;;;;;13.35;91.76;99982.38;5087519;28;19941;-61
2022/12/24 06:45:16;;;;;;;;;;;;;;;13.32;91.51;99999.41;5094951;28;20022;-62
2022/12/24 06:47:41;;;;;;;;;;;;;;;13.34;91.64;99989.53;5093148;28;19965;-62
2022/12/24 06:50:07;;;;;;;;;;;;;;;13.32;91.48;99987.84;5093240;28;19956;-62
2022/12/24 06:52:32;;;;;;;;;;;;;;;13.29;91.37;99998.69;5095428;28;20260;-61
2022/12/24 06:54:57;;;;;;;;;;;;;;;13.31;91.32;100007.50;5094735;28;19960;-61
2022/12/24 06:57:23;;;;;;;;;;;;;;;13.27;90.58;100016.56;5090346;28;20411;-62
2022/12/24 06:59:48;;;;;;;;;;;;;;;13.30;90.42;100005.75;5074900;28;19930;-62
2022/12/24 07:02:13;;;;;;;;;;;;;;;13.32;90.22;100015.44;5074373;28;20016;-62
2022/12/24 07:04:38;;;;;;;;;;;;;;;13.30;90.61;100017.31;5108765;28;19945;-61
2022/12/24 07:07:03;;;;;;;;;;;;;;;13.32;90.56;100025.25;5100101;28;20357;-62
2022/12/24 07:09:29;;;;;;;;;;;;;;;13.28;90.77;100019.16;5091232;28;20000;-61
2022/12/24 07:11:55;;;;;;;;;;;;;;;13.32;90.65;100031.47;5095033;28;19928;-61
2022/12/24 07:14:20;;;;;;;;;;;;;;;13.28;90.00;100034.34;5087406;28;19938;-61
2022/12/24 07:16:45;;;;;;;;;;;;;;;13.27;90.34;100024.59;5077338;28;19932;-61
2022/12/24 07:19:10;;;;;;;;;;;;;;;13.28;90.27;100027.19;5074928;28;19930;-61
2022/12/24 07:21:36;;;;;;;;;;;;;;;13.29;90.18;100028.94;5078218;28;19991;-62
2022/12/24 07:24:01;;;;;;;;;;;;;;;13.29;89.92;100030.72;5083384;28;19933;-61
2022/12/24 07:26:26;;;;;;;;;;;;;;;13.29;90.63;100034.28;5074466;28;20348;-62
2022/12/24 07:28:52;;;;;;;;;;;;;;;13.29;90.36;100030.72;5078585;28;19934;-62
2022/12/24 07:31:17;;;;;;;;;;;;;;;13.28;91.11;100029.84;5089292;28;19973;-61
2022/12/24 07:33:42;;;;;;;;;;;;;;;13.24;90.41;100045.16;5094813;28;19940;-61
2022/12/24 07:36:09;;;;;;;;;;;;;;;13.29;91.15;100036.97;5080358;28;19940;-62
2022/12/24 07:38:34;;;;;;;;;;;;;;;13.30;91.12;100043.16;5074241;28;19942;-62
2022/12/24 07:41:00;;;;;;;;;;;;;;;13.23;92.10;100054.09;5074449;28;19931;-62
2022/12/24 07:43:26;;;;;;;;;;;;;;;13.18;91.87;100044.53;5072107;28;20462;-61
2022/12/24 07:45:53;;;;;;;;;;;;;;;13.19;92.05;100040.97;5091976;28;19938;-62
2022/12/24 07:48:19;;;;;;;;;;;;;;;13.15;92.20;100032.19;5094405;28;19961;-62
2022/12/24 07:50:44;;;;;;;;;;;;;;;13.16;92.43;100041.94;5089985;28;19969;-61
2022/12/24 07:53:09;;;;;;;;;;;;;;;13.16;93.24;100036.59;5094059;28;19946;-62
2022/12/24 07:55:35;;;;;;;;;;;;;;;13.13;94.03;100041.19;5092196;28;19939;-62
2022/12/24 07:58:00;;;;;;;;;;;;;;;13.13;93.12;100041.19;5074377;28;20465;-62
2022/12/24 08:00:25;;;;;;;;;;;;;;;13.10;93.50;100047.56;5073707;28;19932;-62
2022/12/24 08:02:50;;;;;;;;;;;;;;;13.12;93.28;100053.69;5093768;28;20350;-61
2022/12/24 08:05:16;;;;;;;;;;;;;;;13.14;93.35;100046.50;5114624;28;19953;-61
2022/12/24 08:07:41;;;;;;;;;;;;;;;13.13;92.65;100044.75;5097445;28;19982;-62
2022/12/24 08:10:06;;;;;;;;;;;;;;;13.24;92.34;100049.63;5088211;28;19965;-62
2022/12/24 08:12:32;;;;;;;;;;;;;;;13.29;93.14;100052.09;5074043;28;20590;-61
2022/12/24 08:14:57;;;;;;;;;;;;;;;13.29;92.40;100057.44;5073542;28;20383;-62
2022/12/24 08:17:22;;;;;;;;;;;;;;;13.30;92.36;100053.81;5088560;28;19990;-62
2022/12/24 08:19:47;;;;;;;;;;;;;;;13.38;92.56;100067.75;5093839;28;19935;-61
2022/12/24 08:22:14;;;;;;;;;;;;;;;13.43;91.75;100074.63;5087136;28;20435;-62
2022/12/24 08:24:39;;;;;;;;;;;;;;;13.48;91.37;100077.09;5073437;28;19994;-62
2022/12/24 08:27:04;;;;;;;;;;;;;;;13.58;90.97;100065.06;5073641;28;19932;-61
2022/12/24 08:29:29;;;;;;;;;;;;;;;13.64;91.52;100072.81;5089685;28;19952;-62
2022/12/24 08:31:55;;;;;;;;;;;;;;;13.59;90.74;100077.50;5093683;28;19941;-62
2022/12/24 08:34:20;;;;;;;;;;;;;;;13.56;90.72;100070.47;5093367;28;19932;-62
2022/12/24 08:36:45;;;;;;;;;;;;;;;13.51;90.78;100069.81;5091030;28;19938;-62
2022/12/24 08:39:10;;;;;;;;;;;;;;;13.59;91.31;100072.16;5075068;28;19994;-62
2022/12/24 08:41:36;;;;;;;;;;;;;;;13.61;90.57;100071.16;5073383;28;20276;-61
2022/12/24 08:44:01;;;;;;;;;;;;;;;13.65;90.64;100066.53;5075406;28;19983;-62
2022/12/24 08:46:26;;;;;;;;;;;;;;;13.64;90.77;100076.34;5075803;28;19930;-62
2022/12/24 08:48:52;;;;;;;;;;;;;;;13.66;90.68;100068.25;5075183;28;19963;-62
2022/12/24 08:51:18;;;;;;;;;;;;;;;13.63;91.07;100073.75;5072811;28;20392;-62
2022/12/24 08:53:43;;;;;;;;;;;;;;;13.64;90.25;100075.50;5073263;28;19947;-62
2022/12/24 08:56:09;;;;;;;;;;;;;;;13.63;89.54;100084.44;5075352;28;20029;-61
2022/12/24 08:58:35;;;;;;;;;;;;;;;13.64;88.56;100080.84;5073213;28;19935;-62
2022/12/24 09:01:00;;;;;;;;;;;;;;;13.66;88.82;100082.50;5075214;28;19942;-62
2022/12/24 09:03:26;;;;;;;;;;;;;;;13.72;89.46;100084.06;5086070;28;19934;-61
2022/12/24 09:05:52;;;;;;;;;;;;;;;13.75;89.64;100087.47;5112865;28;20070;-61
2022/12/24 09:08:18;;;;;;;;;;;;;;;13.75;89.51;100090.13;5078847;28;19974;-62
2022/12/24 09:10:43;;;;;;;;;;;;;;;13.70;88.25;100096.59;5072490;28;20017;-62
2022/12/24 09:13:08;;;;;;;;;;;;;;;13.72;88.31;100100.09;5074917;28;19932;-62
2022/12/24 09:15:33;;;;;;;;;;;;;;;13.76;87.98;100102.56;5072689;28;19972;-62
2022/12/24 09:17:59;;;;;;;;;;;;;;;13.82;89.74;100101.41;5072525;28;19995;-62
2022/12/24 09:20:25;;;;;;;;;;;;;;;13.85;88.48;100106.63;5074424;28;19983;-62
2022/12/24 09:22:50;;;;;;;;;;;;;;;13.94;87.43;100106.19;5077664;28;19939;-62
2022/12/24 09:25:15;;;;;;;;;;;;;;;14.04;87.43;100104.84;5086378;28;19937;-62
2022/12/24 09:27:40;;;;;;;;;;;;;;;14.13;86.95;100101.78;5072348;28;20282;-61
2022/12/24 09:30:07;;;;;;;;;;;;;;;14.08;86.32;100109.13;5090258;28;19989;-62
2022/12/24 09:32:32;;;;;;;;;;;;;;;14.14;86.46;100103.50;5075653;28;19943;-62
2022/12/24 09:34:57;;;;;;;;;;;;;;;14.07;86.46;100113.63;5092485;28;19935;-62
2022/12/24 09:37:23;;;;;;;;;;;;;;;14.10;86.44;100113.47;5083986;28;19943;-62
2022/12/24 09:39:48;;;;;;;;;;;;;;;14.17;86.56;100119.41;5084889;28;19942;-62
2022/12/24 09:42:13;;;;;;;;;;;;;;;14.15;86.62;100114.13;5075097;28;20020;-62
2022/12/24 09:44:44;;;;;;;;;;;;;;;14.24;85.98;100126.22;5079390;28;19985;-62
2022/12/24 09:47:30;;;;;;;;;;;;;;;15.11;86.14;100127.41;5088319;28;19973;-63
2022/12/24 09:49:58;;;;;;;;;;;;;;;15.94;79.73;100135.69;5065326;28;20309;-63
2022/12/24 09:52:34;;;;;;;;;;;;;;;17.57;74.72;100122.00;5075120;28;20646;-62
2022/12/24 09:55:05;;;;;;;;;;;;;;;17.85;66.07;100127.47;5069834;28;19985;-63
2022/12/24 09:57:34;;;;;;;;;;;;;;;17.15;68.91;100130.72;5068910;28;20425;-62
2022/12/24 10:00:00;;;;;;;;;;;;;;;16.51;71.14;100137.97;5069331;28;19937;-63
2022/12/24 10:02:25;;;;;;;;;;;;;;;15.81;74.23;100146.19;5072814;28;20319;-61
2022/12/24 10:04:50;;;;;;;;;;;;;;;15.41;77.30;100149.16;5090884;28;19953;-61
2022/12/24 10:07:21;;;;;;;;;;;;;;;15.08;78.41;100150.78;5091863;28;20293;-61
2022/12/24 10:09:59;;;;;;;;;;;;;;;14.90;80.96;100163.28;5079093;28;19933;-61
2022/12/24 10:12:27;;;;;;;;;;;;;;;14.83;81.62;100163.63;5073421;28;19940;-61
2022/12/24 10:15:10;;;;;;;;;;;;;;;14.65;81.45;100160.00;5078878;28;20415;-61
2022/12/24 10:17:51;;;;;;;;;;;;;;;14.52;83.48;100166.88;5079169;28;19946;-61
2022/12/24 10:20:16;;;;;;;;;;;;;;;14.44;83.90;100167.25;5077817;28;19936;-62
2022/12/24 10:22:52;;;;;;;;;;;;;;;14.41;85.09;100156.66;5080324;28;20352;-61
2022/12/24 10:25:36;;;;;;;;;;;;;;;14.40;84.68;100164.75;5078152;28;20493;-62
2022/12/24 10:28:05;;;;;;;;;;;;;;;14.39;84.59;100163.03;5084022;28;19949;-61
2022/12/24 10:30:30;;;;;;;;;;;;;;;14.46;85.49;100164.50;5086432;28;19961;-62
2022/12/24 10:32:55;;;;;;;;;;;;;;;14.48;85.63;100173.28;5089376;28;20280;-61
2022/12/24 10:35:22;;;;;;;;;;;;;;;14.52;85.43;100175.78;5074260;28;19934;-61
2022/12/24 10:37:49;;;;;;;;;;;;;;;14.52;85.39;100175.78;5076524;28;19937;-62
2022/12/24 10:40:33;;;;;;;;;;;;;;;14.52;85.47;100165.06;5091189;28;19938;-62
2022/12/24 10:42:58;;;;;;;;;;;;;;;14.60;85.26;100164.69;5086279;28;20020;-62
2022/12/24 10:45:25;;;;;;;;;;;;;;;14.66;86.16;100172.47;5073663;28;20017;-61
2022/12/24 10:47:56;;;;;;;;;;;;;;;14.62;85.88;100173.53;5073736;28;19965;-61
2022/12/24 10:50:27;;;;;;;;;;;;;;;14.56;85.08;100173.84;5069130;28;19957;-62
2022/12/24 10:52:54;;;;;;;;;;;;;;;14.55;86.00;100174.75;5071421;28;19934;-62
2022/12/24 10:55:22;;;;;;;;;;;;;;;14.59;85.99;100180.84;5069414;28;19967;-61
2022/12/24 10:57:56;;;;;;;;;;;;;;;14.45;86.32;100173.44;5070531;28;19991;-61
2022/12/24 11:00:23;;;;;;;;;;;;;;;14.43;86.08;100178.00;5087380;28;19937;-62
2022/12/24 11:03:04;;;;;;;;;;;;;;;14.47;87.89;100184.94;5074141;28;19944;-61
2022/12/24 11:05:31;;;;;;;;;;;;;;;14.49;88.76;100175.06;5071428;28;19946;-61
2022/12/24 11:08:00;;;;;;;;;;;;;;;14.44;90.52;100185.09;5074236;28;20002;-62
2022/12/24 11:10:25;;;;;;;;;;;;;;;14.46;89.43;100185.91;5082235;28;20418;-62
2022/12/24 11:12:50;;;;;;;;;;;;;;;14.44;89.05;100174.38;5068883;28;19940;-61
2022/12/24 11:15:22;;;;;;;;;;;;;;;14.41;89.25;100186.09;5087966;28;19941;-61
2022/12/24 11:17:53;;;;;;;;;;;;;;;14.50;89.74;100182.13;5085059;28;19947;-60
2022/12/24 11:20:21;;;;;;;;;;;;;;;14.57;90.42;100177.34;5075402;28;20529;-61
2022/12/24 11:22:48;;;;;;;;;;;;;;;14.65;90.46;100188.56;5088687;28;19980;-60
2022/12/24 11:25:21;;;;;;;;;;;;;;;14.78;90.52;100181.75;5082133;28;20021;-61
2022/12/24 11:27:50;;;;;;;;;;;;;;;14.95;89.38;100187.16;5071549;28;20454;-60
2022/12/24 11:30:15;;;;;;;;;;;;;;;15.07;89.48;100190.13;5087584;28;20055;-60
2022/12/24 11:32:41;;;;;;;;;;;;;;;15.25;89.08;100183.88;5092270;28;20032;-61
2022/12/24 11:35:07;;;;;;;;;;;;;;;15.44;89.89;100192.78;5088408;28;19984;-61
2022/12/24 11:37:33;;;;;;;;;;;;;;;15.62;88.60;100181.13;5084288;28;19934;-62
2022/12/24 11:40:01;;;;;;;;;;;;;;;15.78;87.75;100184.75;5074536;28;19938;-61
2022/12/24 11:42:35;;;;;;;;;;;;;;;15.95;86.78;100180.38;5072395;28;19932;-60
2022/12/24 11:45:03;;;;;;;;;;;;;;;15.92;86.09;100177.81;5076419;28;19979;-62
2022/12/24 11:47:36;;;;;;;;;;;;;;;16.07;86.61;100171.66;5071872;28;19970;-62
2022/12/24 11:50:20;;;;;;;;;;;;;;;16.23;85.65;100168.09;5080467;28;19987;-62
2022/12/24 11:52:47;;;;;;;;;;;;;;;16.53;84.62;100165.59;5074432;28;19928;-62
2022/12/24 11:55:16;;;;;;;;;;;;;;;16.92;83.69;100149.97;5085413;28;19988;-62
2022/12/24 11:57:46;;;;;;;;;;;;;;;17.61;79.30;100148.63;5075637;28;19936;-62
2022/12/24 12:00:12;;;;;;;;;;;;;;;18.18;73.67;100147.81;5074698;28;19961;-62
2022/12/24 12:02:39;;;;;;;;;;;;;;;18.99;70.14;100143.59;5075966;28;19956;-61
2022/12/24 12:05:15;;;;;;;;;;;;;;;19.59;66.98;100153.91;5111021;28;19948;-61
2022/12/24 12:07:41;;;;;;;;;;;;;;;18.99;62.99;100141.75;5094864;28;19935;-61
2022/12/24 12:10:10;;;;;;;;;;;;;;;18.33;63.50;100146.00;5077412;28;20048;-62
2022/12/24 12:12:39;;;;;;;;;;;;;;;17.63;67.29;100137.75;5072722;28;19976;-62
2022/12/24 12:15:07;;;;;;;;;;;;;;;17.40;69.82;100140.91;5083970;28;19937;-62
2022/12/24 12:17:42;;;;;;;;;;;;;;;17.21;70.90;100141.13;5089530;28;20415;-62
2022/12/24 12:20:17;;;;;;;;;;;;;;;17.19;72.23;100145.72;5083513;28;20417;-62
2022/12/24 12:22:54;;;;;;;;;;;;;;;16.87;71.69;100146.66;5073746;28;19964;-61
2022/12/24 12:25:30;;;;;;;;;;;;;;;16.92;73.89;100141.91;5084012;28;19940;-61
2022/12/24 12:27:57;;;;;;;;;;;;;;;16.85;74.19;100144.06;5079368;28;20561;-62
2022/12/24 12:30:23;;;;;;;;;;;;;;;16.77;73.11;100130.19;5085557;28;19951;-62
2022/12/24 12:32:54;;;;;;;;;;;;;;;16.67;73.15;100145.09;5092999;28;19939;-61
2022/12/24 12:35:23;;;;;;;;;;;;;;;16.42;73.91;100133.94;5085622;28;19997;-62
2022/12/24 12:37:54;;;;;;;;;;;;;;;16.25;74.73;100130.41;5075866;28;20314;-61
2022/12/24 12:40:24;;;;;;;;;;;;;;;16.17;75.63;100132.66;5073358;28;19947;-61
2022/12/24 12:42:54;;;;;;;;;;;;;;;16.18;76.13;100134.38;5073551;28;20347;-62
2022/12/24 12:45:37;;;;;;;;;;;;;;;16.23;76.89;100137.69;5085939;28;20417;-61
2022/12/24 12:48:13;;;;;;;;;;;;;;;16.35;76.62;100131.66;5075605;28;19969;-61
2022/12/24 12:50:44;;;;;;;;;;;;;;;16.27;76.56;100133.91;5073950;28;19950;-62
2022/12/24 12:53:09;;;;;;;;;;;;;;;16.32;77.00;100134.53;5088344;28;20276;-62